ADDS METAR Data

Data at: 0455 UTC 20 Apr 2018

METAR for:KLCI (Laconia Muni, NH, US)
Text:KLCI 200356Z AUTO 29007KT 10SM OVC085 02/M02 A2980 RMK AO2 SLP112 T00221022 400720011 FZRANO
Temperature: 2.2°C ( 36°F)
Dewpoint: -2.2°C ( 28°F) [RH = 73%]
Pressure (altimeter):29.80 inches Hg (1009.2 mb) [Sea level pressure: 1011.2 mb]
Winds:from the WNW (290 degrees) at 8 MPH (7 knots; 3.6 m/s)
Visibility:10 or more sm (16+ km)
Ceiling:8500 feet AGL
Clouds: overcast cloud deck at 8500 feet AGL
QC Flag:automated observation with no human augmentation